map of HFD home
HFD - Airport
Location
City:  Hartford, Connecticut, United States
Name:Hartford-Brainard Airport
ICAO:KHFD
IATA:HFD
FAA LID:HFD

Details
Type:Airport (Airfield)
Use:Public/Civil
Latitude:4144'12"N (41.736722)
Longitude:7238'58"W (-72.649443)
Datum:WGS 1984
Elevation:18 ft (5 m)
Variation:13.80W (WMM2015 magnetic declination)
0.04 annual change
Runways:3
Longest:4417 × 150 ft (1346 × 45.5 m), paved

Time
Time Zone:UTC-5 (DST-4)
Local Time:

Weather
METAR:KHFD 131053Z 30006KT 10SM BKN060 M06/M15 A2939 RMK AO2 SLP951 T10561150

Related Locations
Nearby:
Farthest:MQZ: 11750 mi / 18910 km
Margaret River [Margaret River Airport], WA, AU

Find:

   beyond  
but within

Other Information
Maps:
NOTAMs:
Links:
Sources:

  
flag of United States
flag of Connecticut
  

Airport Diagram

Airport diagram for HFD

Airport diagram PDF

Sectional Chart

Flight Planning
at skyvector.com

Satellite Image

Google Maps Satellite view

 

Copyright © 2004-2017 Karl L. Swartz. All rights reserved.
The Great Circle Mapper name and logo are trademarks of the Great Circle Mapper.
All other trademarks mentioned herein belong to their respective owners.
Please see credits for attibutions and further copyright information.

  Follow gcmap on Facebook Follow gcmap on Twitter Follow gcmap on Google+ GCmap on LinkedIn

hCard Microformat

Geo Microformat